createdAt,value
2022-08-07T00:00:11.428Z,14.27
2022-08-07T00:02:44.427Z,14.24
2022-08-07T00:05:11.843Z,14.19
2022-08-07T00:07:40.070Z,14.18
2022-08-07T00:10:26.065Z,14.16
2022-08-07T00:12:59.781Z,14.13
2022-08-07T00:15:38.188Z,14.12
2022-08-07T00:18:23.879Z,14.08
2022-08-07T00:21:01.805Z,14.08
2022-08-07T00:23:32.369Z,14.05
2022-08-07T00:26:10.828Z,14.08
2022-08-07T00:28:45.691Z,14.06
2022-08-07T00:31:22.695Z,14.06
2022-08-07T00:33:49.994Z,14.07
2022-08-07T00:36:17.255Z,14.08
2022-08-07T00:38:44.261Z,14.01
2022-08-07T00:41:14.730Z,14.00
2022-08-07T00:44:00.668Z,13.95
2022-08-07T00:46:30.982Z,13.93
2022-08-07T00:49:03.443Z,13.97
2022-08-07T00:51:58.378Z,14.01
2022-08-07T00:54:19.761Z,14.02
2022-08-07T00:56:49.728Z,13.99
2022-08-07T00:59:20.107Z,13.97
2022-08-07T01:02:00.193Z,13.98
2022-08-07T01:04:30.316Z,13.97
2022-08-07T01:07:00.009Z,13.97
2022-08-07T01:10:05.259Z,13.97
2022-08-07T01:12:29.825Z,13.98
2022-08-07T01:15:04.025Z,13.98
2022-08-07T01:17:33.134Z,14.01
2022-08-07T01:20:10.376Z,14.00
2022-08-07T01:22:57.829Z,13.98
2022-08-07T01:25:40.305Z,13.94
2022-08-07T01:28:20.679Z,13.94
2022-08-07T01:30:53.058Z,13.91
2022-08-07T01:33:22.930Z,13.88
2022-08-07T01:35:54.350Z,13.84
2022-08-07T01:38:34.809Z,13.73
2022-08-07T01:41:12.225Z,13.64
2022-08-07T01:43:54.737Z,13.64
2022-08-07T01:46:22.071Z,13.69
2022-08-07T01:48:51.368Z,13.70
2022-08-07T01:52:02.175Z,13.67
2022-08-07T01:54:32.616Z,13.68
2022-08-07T01:57:08.354Z,13.69
2022-08-07T01:59:45.263Z,13.69
2022-08-07T02:03:12.387Z,13.64
2022-08-07T02:05:48.436Z,13.69
2022-08-07T02:08:24.583Z,13.76
2022-08-07T02:10:58.176Z,13.75
2022-08-07T02:13:56.655Z,13.72
2022-08-07T02:16:28.418Z,13.73
2022-08-07T02:19:05.591Z,13.73
2022-08-07T02:21:56.018Z,13.69
2022-08-07T02:24:25.544Z,13.67
2022-08-07T02:27:00.102Z,13.56
2022-08-07T02:29:31.266Z,13.44
2022-08-07T02:32:01.698Z,13.42
2022-08-07T02:34:33.131Z,13.38
2022-08-07T02:37:08.272Z,13.37
2022-08-07T02:39:43.004Z,13.39
2022-08-07T02:42:16.845Z,13.40
2022-08-07T02:44:51.041Z,13.40
2022-08-07T02:47:24.915Z,13.33
2022-08-07T02:50:00.654Z,13.29
2022-08-07T02:52:39.458Z,13.25
2022-08-07T02:55:27.979Z,13.22
2022-08-07T02:58:07.989Z,13.22
2022-08-07T03:00:40.934Z,13.25
2022-08-07T03:03:22.655Z,13.27
2022-08-07T03:05:56.327Z,13.30
2022-08-07T03:08:26.742Z,13.29
2022-08-07T03:10:57.663Z,13.19
2022-08-07T03:13:39.048Z,13.25
2022-08-07T03:16:18.333Z,13.21
2022-08-07T03:18:52.750Z,13.17
2022-08-07T03:21:22.563Z,13.12
2022-08-07T03:24:17.761Z,13.10
2022-08-07T03:26:51.339Z,13.05
2022-08-07T03:29:33.770Z,13.06
2022-08-07T03:32:07.371Z,13.03
2022-08-07T03:34:47.014Z,13.02
2022-08-07T03:37:32.485Z,13.03
2022-08-07T03:40:14.883Z,12.97
2022-08-07T03:42:52.674Z,12.90
2022-08-07T03:45:30.804Z,12.90
2022-08-07T03:48:10.028Z,12.91
2022-08-07T03:50:39.226Z,12.94
2022-08-07T03:53:11.455Z,12.97
2022-08-07T03:55:58.080Z,13.04
2022-08-07T03:59:07.272Z,13.03
2022-08-07T04:01:18.890Z,13.03
2022-08-07T04:03:55.234Z,13.00
2022-08-07T04:06:37.238Z,13.04
2022-08-07T04:09:15.863Z,13.06
2022-08-07T04:12:24.569Z,13.03
2022-08-07T04:14:38.656Z,13.07
2022-08-07T04:18:04.655Z,13.09
2022-08-07T04:20:01.358Z,13.13
2022-08-07T04:22:31.987Z,13.15
2022-08-07T04:25:11.947Z,13.19
2022-08-07T04:27:43.955Z,13.22
2022-08-07T04:30:21.462Z,13.27
2022-08-07T04:33:08.970Z,13.33
2022-08-07T04:35:39.759Z,13.37
2022-08-07T04:38:14.393Z,13.39
2022-08-07T04:40:51.705Z,13.41
2022-08-07T04:44:10.664Z,13.42
2022-08-07T04:47:03.993Z,13.46
2022-08-07T04:49:47.576Z,13.48
2022-08-07T04:52:52.110Z,13.55
2022-08-07T04:58:12.233Z,13.60
2022-08-07T04:59:17.460Z,13.61
2022-08-07T05:01:54.350Z,13.66
2022-08-07T05:04:47.351Z,13.71
2022-08-07T05:07:30.415Z,13.75
2022-08-07T05:10:06.510Z,13.79
2022-08-07T05:12:53.093Z,13.86
2022-08-07T05:15:28.010Z,13.97
2022-08-07T05:18:08.668Z,14.04
2022-08-07T05:20:43.981Z,14.12
2022-08-07T05:23:16.851Z,14.20
2022-08-07T05:26:10.403Z,14.26
2022-08-07T05:28:40.526Z,14.35
2022-08-07T05:31:14.517Z,14.41
2022-08-07T05:33:51.421Z,14.50
2022-08-07T05:36:35.354Z,14.62
2022-08-07T05:39:09.134Z,14.80
2022-08-07T05:42:02.687Z,14.92
2022-08-07T05:44:36.499Z,15.05
2022-08-07T05:47:18.116Z,15.16
2022-08-07T05:49:53.145Z,15.29
2022-08-07T05:52:29.843Z,15.41
2022-08-07T05:55:07.223Z,15.52
2022-08-07T05:57:42.346Z,15.55
2022-08-07T06:00:16.306Z,15.68
2022-08-07T06:02:53.926Z,15.81
2022-08-07T06:05:28.327Z,15.94
2022-08-07T06:08:13.535Z,16.04
2022-08-07T06:10:51.357Z,16.13
2022-08-07T06:14:10.653Z,16.23
2022-08-07T06:16:10.191Z,16.38
2022-08-07T06:18:40.387Z,16.49
2022-08-07T06:22:15.158Z,16.58
2022-08-07T06:24:46.346Z,16.62
2022-08-07T06:26:47.719Z,16.74
2022-08-07T06:29:14.776Z,16.87
2022-08-07T06:31:49.720Z,16.93
2022-08-07T06:34:25.775Z,17.05
2022-08-07T06:36:58.596Z,17.16
2022-08-07T06:40:18.365Z,17.25
2022-08-07T06:42:37.632Z,17.38
2022-08-07T06:45:11.967Z,17.47
2022-08-07T06:47:57.636Z,17.57
2022-08-07T06:50:30.864Z,17.69
2022-08-07T06:53:04.197Z,17.75
2022-08-07T06:55:53.513Z,17.82
2022-08-07T06:58:27.616Z,17.93
2022-08-07T07:01:07.268Z,18.00
2022-08-07T07:03:47.590Z,18.09
2022-08-07T07:06:23.939Z,18.21
2022-08-07T07:08:53.309Z,18.25
2022-08-07T07:12:09.682Z,18.34
2022-08-07T07:14:16.462Z,18.39
2022-08-07T07:16:50.609Z,18.38
2022-08-07T07:19:55.716Z,18.50
2022-08-07T07:22:36.639Z,18.48
2022-08-07T07:26:33.145Z,18.60
2022-08-07T07:28:29.676Z,18.70
2022-08-07T07:31:21.744Z,18.81
2022-08-07T07:33:58.840Z,18.82
2022-08-07T07:36:32.188Z,18.89
2022-08-07T07:39:01.618Z,18.98
2022-08-07T07:41:30.854Z,19.08
2022-08-07T07:44:25.707Z,19.08
2022-08-07T07:46:59.459Z,19.11
2022-08-07T07:50:36.179Z,19.37
2022-08-07T07:52:30.638Z,19.32
2022-08-07T07:54:59.527Z,19.40
2022-08-07T07:57:51.816Z,19.52
2022-08-07T08:00:20.948Z,19.59
2022-08-07T08:03:05.431Z,19.69
2022-08-07T08:05:50.807Z,19.85
2022-08-07T08:08:34.693Z,19.99
2022-08-07T08:11:08.433Z,20.12
2022-08-07T08:13:54.929Z,20.20
2022-08-07T08:16:35.232Z,20.37
2022-08-07T08:19:18.064Z,20.43
2022-08-07T08:22:12.633Z,20.61
2022-08-07T08:25:09.586Z,20.67
2022-08-07T08:27:56.380Z,20.64
2022-08-07T08:30:26.229Z,20.62
2022-08-07T08:32:57.036Z,21.06
2022-08-07T08:35:28.898Z,21.62
2022-08-07T08:38:09.905Z,21.69
2022-08-07T08:40:43.924Z,21.57
2022-08-07T08:43:42.830Z,21.65
2022-08-07T08:46:41.186Z,21.58
2022-08-07T08:50:04.500Z,21.78
2022-08-07T08:52:40.744Z,21.84
2022-08-07T08:55:53.339Z,21.89
2022-08-07T08:58:34.262Z,22.23
2022-08-07T09:01:43.944Z,22.64
2022-08-07T09:04:16.628Z,22.84
2022-08-07T09:06:52.808Z,22.60
2022-08-07T09:09:36.614Z,22.47
2022-08-07T09:12:20.051Z,22.42
2022-08-07T09:16:22.439Z,22.34
2022-08-07T09:18:34.995Z,22.58
2022-08-07T09:21:33.775Z,22.60
2022-08-07T09:25:00.260Z,22.48
2022-08-07T09:27:59.544Z,22.75
2022-08-07T09:30:30.139Z,23.23
2022-08-07T09:33:40.717Z,23.41
2022-08-07T09:36:15.337Z,23.33
2022-08-07T09:38:59.112Z,23.20
2022-08-07T09:41:58.984Z,23.45
2022-08-07T09:47:33.646Z,23.21
2022-08-07T09:48:02.398Z,23.33
2022-08-07T09:50:56.332Z,22.97
2022-08-07T09:53:41.180Z,22.77
2022-08-07T09:56:46.418Z,22.65
2022-08-07T09:59:34.566Z,22.99
2022-08-07T10:02:29.457Z,23.62
2022-08-07T10:05:00.282Z,23.71
2022-08-07T10:08:05.717Z,24.13
2022-08-07T10:12:00.001Z,24.32
2022-08-07T10:14:23.069Z,24.56
2022-08-07T10:17:21.747Z,24.03
2022-08-07T10:20:22.001Z,23.61
2022-08-07T10:23:16.891Z,23.49
2022-08-07T10:26:24.679Z,23.90
2022-08-07T10:29:00.848Z,24.24
2022-08-07T10:31:39.782Z,24.54
2022-08-07T10:34:47.536Z,24.98
2022-08-07T10:38:00.328Z,25.19
2022-08-07T10:40:13.975Z,24.71
2022-08-07T10:43:07.392Z,24.22
2022-08-07T10:45:57.558Z,23.78
2022-08-07T10:48:35.451Z,23.69
2022-08-07T10:51:57.662Z,23.64
2022-08-07T10:54:32.202Z,23.62
2022-08-07T10:57:34.799Z,23.65
2022-08-07T11:00:02.063Z,23.81
2022-08-07T11:02:53.636Z,23.93
2022-08-07T11:05:50.364Z,23.83
2022-08-07T11:08:31.611Z,23.69
2022-08-07T11:11:10.638Z,23.79
2022-08-07T11:14:43.827Z,23.89
2022-08-07T11:16:52.775Z,23.57
2022-08-07T11:19:32.015Z,23.49
2022-08-07T11:22:26.630Z,23.34
2022-08-07T11:25:11.333Z,23.15
2022-08-07T11:28:04.192Z,22.97
2022-08-07T11:30:57.988Z,22.85
2022-08-07T11:34:00.368Z,22.79
2022-08-07T11:36:43.850Z,22.95
2022-08-07T11:39:14.489Z,23.48
2022-08-07T11:42:02.210Z,23.67
2022-08-07T11:44:57.619Z,23.79
2022-08-07T11:48:18.323Z,24.23
2022-08-07T11:51:41.623Z,24.57
2022-08-07T11:54:25.380Z,24.71
2022-08-07T11:57:57.658Z,24.91
2022-08-07T12:00:19.693Z,25.23
2022-08-07T12:02:57.295Z,25.20
2022-08-07T12:05:49.037Z,25.21
2022-08-07T12:08:31.928Z,25.19
2022-08-07T12:11:21.046Z,25.03
2022-08-07T12:13:55.224Z,24.94
2022-08-07T12:16:37.634Z,25.07
2022-08-07T12:19:35.661Z,25.41
2022-08-07T12:22:58.591Z,25.65
2022-08-07T12:26:05.623Z,25.85
2022-08-07T12:28:59.165Z,26.25
2022-08-07T12:31:52.817Z,25.98
2022-08-07T12:34:29.567Z,25.45
2022-08-07T12:36:57.847Z,25.13
2022-08-07T12:39:44.823Z,25.10
2022-08-07T12:42:27.350Z,24.98
2022-08-07T12:44:59.096Z,24.68
2022-08-07T12:47:50.214Z,24.90
2022-08-07T12:50:39.428Z,25.10
2022-08-07T12:54:23.971Z,25.54
2022-08-07T12:56:39.633Z,26.15
2022-08-07T12:59:08.739Z,26.39
2022-08-07T13:02:25.006Z,26.78
2022-08-07T13:06:03.857Z,26.71
2022-08-07T13:08:23.524Z,26.09
2022-08-07T13:11:31.035Z,25.72
2022-08-07T13:14:37.195Z,25.50
2022-08-07T13:17:41.216Z,25.23
2022-08-07T13:20:21.731Z,25.57
2022-08-07T13:24:02.854Z,25.92
2022-08-07T13:26:25.593Z,26.09
2022-08-07T13:28:59.034Z,26.64
2022-08-07T13:31:54.962Z,26.92
2022-08-07T13:34:44.551Z,26.69
2022-08-07T13:37:30.828Z,26.70
2022-08-07T13:40:35.412Z,26.75
2022-08-07T13:43:13.380Z,27.17
2022-08-07T13:46:11.379Z,26.64
2022-08-07T13:48:40.702Z,26.04
2022-08-07T13:51:27.316Z,25.62
2022-08-07T13:54:07.556Z,25.11
2022-08-07T13:56:40.895Z,25.05
2022-08-07T13:59:27.110Z,25.17
2022-08-07T14:02:14.063Z,25.37
2022-08-07T14:05:00.733Z,25.75
2022-08-07T14:07:31.602Z,26.58
2022-08-07T14:10:17.623Z,27.13
2022-08-07T14:12:58.727Z,27.19
2022-08-07T14:15:42.799Z,27.47
2022-08-07T14:18:29.303Z,27.52
2022-08-07T14:21:21.111Z,27.19
2022-08-07T14:24:09.609Z,26.88
2022-08-07T14:26:57.342Z,26.95
2022-08-07T14:30:05.562Z,27.35
2022-08-07T14:32:19.844Z,27.81
2022-08-07T14:34:49.746Z,27.90
2022-08-07T14:37:23.860Z,27.86
2022-08-07T14:40:16.164Z,27.32
2022-08-07T14:45:54.797Z,27.32
2022-08-07T14:48:27.583Z,27.08
2022-08-07T14:50:58.137Z,26.51
2022-08-07T14:59:14.060Z,24.94
2022-08-07T15:02:33.211Z,25.07
2022-08-07T15:04:57.994Z,25.23
2022-08-07T15:07:51.005Z,25.31
2022-08-07T15:13:25.296Z,25.06
2022-08-07T15:16:00.693Z,24.83
2022-08-07T15:18:41.571Z,24.58
2022-08-07T15:25:13.969Z,25.20
2022-08-07T15:27:24.344Z,24.84
2022-08-07T15:30:04.746Z,24.93
2022-08-07T15:33:01.190Z,24.82
2022-08-07T15:38:31.027Z,24.90
2022-08-07T15:41:24.126Z,25.05
2022-08-07T15:44:10.125Z,24.88
2022-08-07T15:46:47.414Z,25.13
2022-08-07T15:50:05.022Z,25.08
2022-08-07T15:52:30.674Z,25.30
2022-08-07T15:55:02.732Z,25.85
2022-08-07T15:57:47.294Z,26.32
2022-08-07T16:00:31.897Z,25.51
2022-08-07T16:03:46.334Z,25.50
2022-08-07T16:06:13.040Z,25.64
2022-08-07T16:08:47.360Z,25.20
2022-08-07T16:11:40.221Z,24.85
2022-08-07T16:14:53.841Z,25.27
2022-08-07T16:18:01.374Z,25.65
2022-08-07T16:20:33.702Z,25.56
2022-08-07T16:23:53.485Z,25.90
2022-08-07T16:26:30.445Z,25.90
2022-08-07T16:30:07.091Z,25.41
2022-08-07T16:32:32.812Z,25.90
2022-08-07T16:35:00.970Z,25.69
2022-08-07T16:38:05.832Z,25.50
2022-08-07T16:41:06.655Z,25.54
2022-08-07T16:44:46.324Z,25.64
2022-08-07T16:47:42.267Z,25.87
2022-08-07T16:51:13.474Z,25.20
2022-08-07T16:54:01.381Z,24.95
2022-08-07T16:56:32.730Z,25.58
2022-08-07T16:59:14.537Z,25.72
2022-08-07T17:02:02.938Z,25.14
2022-08-07T17:04:58.513Z,24.99
2022-08-07T17:07:55.489Z,24.43
2022-08-07T17:10:39.240Z,23.90
2022-08-07T17:13:24.795Z,23.49
2022-08-07T17:16:16.342Z,23.15
2022-08-07T17:19:16.436Z,23.09
2022-08-07T17:21:51.711Z,23.16
2022-08-07T17:24:34.660Z,23.17
2022-08-07T17:27:08.843Z,23.40
2022-08-07T17:30:14.531Z,23.20
2022-08-07T17:33:39.214Z,23.08
2022-08-07T17:36:20.395Z,23.23
2022-08-07T17:39:19.897Z,22.89
2022-08-07T17:42:03.879Z,22.81
2022-08-07T17:44:46.942Z,22.85
2022-08-07T17:47:42.880Z,22.57
2022-08-07T17:50:49.620Z,22.27
2022-08-07T17:54:01.360Z,22.10
2022-08-07T17:56:49.733Z,22.04
2022-08-07T17:59:44.852Z,21.88
2022-08-07T18:02:17.596Z,21.89
2022-08-07T18:05:20.836Z,21.73
2022-08-07T18:08:24.418Z,21.64
2022-08-07T18:12:07.938Z,21.57
2022-08-07T18:14:31.631Z,21.51
2022-08-07T18:17:05.298Z,21.55
2022-08-07T18:21:12.715Z,21.51
2022-08-07T18:22:45.763Z,21.43
2022-08-07T18:25:39.130Z,21.37
2022-08-07T18:28:34.100Z,21.22
2022-08-07T18:31:18.553Z,21.12
2022-08-07T18:34:37.580Z,21.09
2022-08-07T18:38:56.751Z,20.99
2022-08-07T18:40:57.729Z,20.97
2022-08-07T18:43:42.901Z,20.85
2022-08-07T18:46:27.402Z,20.82
2022-08-07T18:50:31.269Z,20.74
2022-08-07T18:52:37.612Z,20.68
2022-08-07T18:55:42.745Z,20.56
2022-08-07T18:58:42.762Z,20.49
2022-08-07T19:01:58.888Z,20.41
2022-08-07T19:04:03.962Z,20.37
2022-08-07T19:06:52.906Z,20.30
2022-08-07T19:09:55.306Z,20.15
2022-08-07T19:12:26.335Z,20.08
2022-08-07T19:14:56.568Z,20.02
2022-08-07T19:18:03.960Z,19.94
2022-08-07T19:20:30.983Z,19.82
2022-08-07T19:23:18.389Z,19.73
2022-08-07T19:26:23.846Z,19.70
2022-08-07T19:30:55.676Z,19.61
2022-08-07T19:32:07.799Z,19.45
2022-08-07T19:34:47.941Z,19.34
2022-08-07T19:37:18.550Z,19.19
2022-08-07T19:40:02.259Z,19.13
2022-08-07T19:42:31.781Z,19.06
2022-08-07T19:45:12.956Z,18.98
2022-08-07T19:47:59.927Z,18.92
2022-08-07T19:50:43.753Z,18.83
2022-08-07T19:54:44.437Z,18.73
2022-08-07T19:56:15.172Z,18.58
2022-08-07T19:58:57.927Z,18.51
2022-08-07T20:01:56.266Z,18.41
2022-08-07T20:04:31.976Z,18.28
2022-08-07T20:07:09.186Z,18.21
2022-08-07T20:10:34.150Z,18.12
2022-08-07T20:12:36.156Z,18.06
2022-08-07T20:15:15.573Z,17.99
2022-08-07T20:17:56.370Z,17.94
2022-08-07T20:20:34.971Z,17.90
2022-08-07T20:23:23.247Z,17.86
2022-08-07T20:26:04.585Z,17.80
2022-08-07T20:28:39.867Z,17.69
2022-08-07T20:31:21.229Z,17.69
2022-08-07T20:33:56.742Z,17.65
2022-08-07T20:36:28.485Z,17.62
2022-08-07T20:39:00.834Z,17.56
2022-08-07T20:41:48.375Z,17.55
2022-08-07T20:44:16.382Z,17.52
2022-08-07T20:46:46.811Z,17.46
2022-08-07T20:49:59.635Z,17.46
2022-08-07T20:52:30.228Z,17.39
2022-08-07T20:55:12.458Z,17.27
2022-08-07T20:57:51.380Z,17.15
2022-08-07T21:00:42.947Z,17.02
2022-08-07T21:03:16.891Z,17.05
2022-08-07T21:05:56.596Z,17.03
2022-08-07T21:08:41.237Z,17.09
2022-08-07T21:11:12.261Z,17.01
2022-08-07T21:14:29.375Z,16.93
2022-08-07T21:17:06.543Z,16.84
2022-08-07T21:19:51.707Z,16.76
2022-08-07T21:22:33.446Z,16.70
2022-08-07T21:25:04.788Z,16.65
2022-08-07T21:28:10.847Z,16.64
2022-08-07T21:30:55.065Z,16.58
2022-08-07T21:33:41.153Z,16.57
2022-08-07T21:36:11.846Z,16.52
2022-08-07T21:39:47.120Z,16.50
2022-08-07T21:45:42.113Z,16.51
2022-08-07T21:48:48.260Z,16.54
2022-08-07T21:51:57.871Z,16.51
2022-08-07T21:54:38.319Z,16.47
2022-08-07T21:57:40.090Z,16.43
2022-08-07T22:00:22.346Z,16.40
2022-08-07T22:02:53.252Z,16.36
2022-08-07T22:05:45.862Z,16.35
2022-08-07T22:08:14.362Z,16.35
2022-08-07T22:10:53.960Z,16.32
2022-08-07T22:13:52.353Z,16.33
2022-08-07T22:16:38.947Z,16.31
2022-08-07T22:19:29.436Z,16.21
2022-08-07T22:22:28.573Z,16.10
2022-08-07T22:25:03.240Z,16.10
2022-08-07T22:27:34.065Z,16.08
2022-08-07T22:30:21.286Z,16.07
2022-08-07T22:33:12.528Z,16.06
2022-08-07T22:35:58.309Z,16.02
2022-08-07T22:38:31.886Z,15.97
2022-08-07T22:41:02.943Z,15.89
2022-08-07T22:43:36.818Z,15.86
2022-08-07T22:46:43.166Z,15.85
2022-08-07T22:49:15.880Z,15.81
2022-08-07T22:51:52.093Z,15.79
2022-08-07T22:54:31.678Z,15.80
2022-08-07T22:57:32.341Z,15.78
2022-08-07T23:00:04.528Z,15.83
2022-08-07T23:02:41.500Z,15.85
2022-08-07T23:06:15.061Z,15.86
2022-08-07T23:08:24.207Z,15.92
2022-08-07T23:11:16.699Z,15.91
2022-08-07T23:14:15.033Z,15.92
2022-08-07T23:16:54.960Z,15.90
2022-08-07T23:19:57.916Z,15.87
2022-08-07T23:22:34.052Z,15.79
2022-08-07T23:25:07.066Z,15.76
2022-08-07T23:28:22.923Z,15.70
2022-08-07T23:32:50.342Z,15.64
2022-08-07T23:34:34.650Z,15.63
2022-08-07T23:37:29.670Z,15.54
2022-08-07T23:40:14.670Z,15.54
2022-08-07T23:43:17.440Z,15.50
2022-08-07T23:46:10.828Z,15.49
2022-08-07T23:49:15.814Z,15.49
2022-08-07T23:52:58.451Z,15.49
2022-08-07T23:54:58.338Z,15.43
2022-08-07T23:57:55.764Z,15.39
